Portada
METAR-TAF:

METAR-TAF

Aeropuertos :

Porter County Municipal Airport

Valparaiso, Indiana, Estados Unidos

latitud: 41-27-11N, longitud: 086-59-53W, altitud: 234 m

Observación

El informe se hizo hace 36 minutos, a las 18:56 UTC
Viento 9 kt del sur con ráfagas de 17 kt
Temperatura 32°C
Humedad 43%
Presión 1023 hPa
Visibilidad: 16.1 km
Escasas nubes a una altura de 8000 ft

METAR: KVPZ 191856Z AUTO 18009G17KT 10SM FEW080 32/18 A3022 RMK AO2 SLP227 T03170183

Hora: 14:32 (19:32 UTC)


TAF: falta

Observaciones y pronósticos meteorológicos de más de 4000 aeropuertos (mensajes METAR y TAF).

Los puntos amarillos y rojos representan las estaciones disponibles.

Ponga el ratón en el punto deseado para ver el nombre de la estación.

Haga clic para ver las observaciones y los pronósticos meteorológicos.

Para cambiar el mapa : haga clic en los botones verdes con una cruz de color negro para hacer un zoom, en el botón verde con un guión para alejar o en las flechas verdes para mapas adyacentes.


METAR-TAF: